createdAt,value
2022-07-31T00:00:22.662Z,21.44
2022-07-31T00:02:49.866Z,22.21
2022-07-31T00:05:17.024Z,22.16
2022-07-31T00:07:43.821Z,21.85
2022-07-31T00:10:10.729Z,22.22
2022-07-31T00:12:37.569Z,22.10
2022-07-31T00:15:06.702Z,22.10
2022-07-31T00:17:34.509Z,22.82
2022-07-31T00:20:01.940Z,22.15
2022-07-31T00:22:29.165Z,21.55
2022-07-31T00:24:56.226Z,21.65
2022-07-31T00:27:23.686Z,23.14
2022-07-31T00:29:51.263Z,23.06
2022-07-31T00:32:18.298Z,22.53
2022-07-31T00:34:45.085Z,23.44
2022-07-31T00:37:11.868Z,22.79
2022-07-31T00:39:38.805Z,22.08
2022-07-31T00:42:05.982Z,22.75
2022-07-31T00:44:32.913Z,22.64
2022-07-31T00:47:00.750Z,22.70
2022-07-31T00:49:37.808Z,23.15
2022-07-31T00:52:05.783Z,22.22
2022-07-31T00:54:33.137Z,23.87
2022-07-31T00:57:00.168Z,22.32
2022-07-31T00:59:28.866Z,21.62
2022-07-31T01:01:56.581Z,21.71
2022-07-31T01:04:23.687Z,22.46
2022-07-31T01:06:50.833Z,22.04
2022-07-31T01:09:17.654Z,22.08
2022-07-31T01:12:02.725Z,21.84
2022-07-31T01:14:35.656Z,21.66
2022-07-31T01:17:05.066Z,21.42
2022-07-31T01:19:38.099Z,22.28
2022-07-31T01:22:35.262Z,21.84
2022-07-31T01:25:34.707Z,21.41
2022-07-31T01:28:43.615Z,21.90
2022-07-31T01:31:26.551Z,21.93
2022-07-31T01:34:10.585Z,22.04
2022-07-31T01:36:44.594Z,21.58
2022-07-31T01:39:11.850Z,22.12
2022-07-31T01:41:43.186Z,22.31
2022-07-31T01:44:14.183Z,21.71
2022-07-31T01:46:44.046Z,21.78
2022-07-31T01:49:13.288Z,21.83
2022-07-31T01:51:43.801Z,21.36
2022-07-31T01:54:13.087Z,21.66
2022-07-31T01:56:41.001Z,21.15
2022-07-31T01:59:20.026Z,22.38
2022-07-31T02:02:09.880Z,23.00
2022-07-31T02:04:38.785Z,21.34
2022-07-31T02:07:08.309Z,21.22
2022-07-31T02:09:37.370Z,21.90
2022-07-31T02:12:09.687Z,22.30
2022-07-31T02:14:40.746Z,22.17
2022-07-31T02:17:09.743Z,21.94
2022-07-31T02:19:59.985Z,21.81
2022-07-31T02:22:29.386Z,22.53
2022-07-31T02:24:56.340Z,22.44
2022-07-31T02:27:54.285Z,22.24
2022-07-31T02:30:13.548Z,22.04
2022-07-31T02:32:41.338Z,22.57
2022-07-31T02:35:09.688Z,22.20
2022-07-31T02:37:38.931Z,21.83
2022-07-31T02:40:08.049Z,21.65
2022-07-31T02:42:36.855Z,21.61
2022-07-31T02:45:06.350Z,22.30
2022-07-31T02:47:33.615Z,21.72
2022-07-31T02:50:04.122Z,21.66
2022-07-31T02:52:32.146Z,21.23
2022-07-31T02:55:00.439Z,23.03
2022-07-31T02:57:27.428Z,22.31
2022-07-31T02:59:54.563Z,22.07
2022-07-31T03:02:22.747Z,22.16
2022-07-31T03:05:04.211Z,21.63
2022-07-31T03:07:31.562Z,22.26
2022-07-31T03:09:58.879Z,21.76
2022-07-31T03:12:52.633Z,21.54
2022-07-31T03:15:21.569Z,21.63
2022-07-31T03:17:50.430Z,21.78
2022-07-31T03:20:25.014Z,22.32
2022-07-31T03:22:52.055Z,21.60
2022-07-31T03:25:21.969Z,21.77
2022-07-31T03:27:52.346Z,22.11
2022-07-31T03:30:25.896Z,22.31
2022-07-31T03:32:56.610Z,21.82
2022-07-31T03:35:25.298Z,21.58
2022-07-31T03:37:52.439Z,22.09
2022-07-31T03:40:19.563Z,21.64
2022-07-31T03:42:49.028Z,21.00
2022-07-31T03:45:16.492Z,21.35
2022-07-31T03:47:43.543Z,20.94
2022-07-31T03:50:11.642Z,21.06
2022-07-31T03:52:38.741Z,21.30
2022-07-31T03:55:07.580Z,21.37
2022-07-31T03:57:36.453Z,21.31
2022-07-31T04:00:05.018Z,21.87
2022-07-31T04:02:43.457Z,21.36
2022-07-31T04:05:30.481Z,20.64
2022-07-31T04:07:58.043Z,21.00
2022-07-31T04:10:25.267Z,21.39
2022-07-31T04:12:52.458Z,21.40
2022-07-31T04:15:19.231Z,21.31
2022-07-31T04:17:46.135Z,20.97
2022-07-31T04:20:16.332Z,21.81
2022-07-31T04:22:43.106Z,22.05
2022-07-31T04:25:18.555Z,21.90
2022-07-31T04:28:11.790Z,21.70
2022-07-31T04:30:39.268Z,21.40
2022-07-31T04:33:06.446Z,21.84
2022-07-31T04:35:33.493Z,22.22
2022-07-31T04:38:00.623Z,22.61
2022-07-31T04:40:30.262Z,22.13
2022-07-31T04:42:57.031Z,21.51
2022-07-31T04:45:23.886Z,21.70
2022-07-31T04:47:50.827Z,21.47
2022-07-31T04:50:17.730Z,21.04
2022-07-31T04:52:55.574Z,22.24
2022-07-31T04:55:24.375Z,21.81
2022-07-31T04:57:51.282Z,21.94
2022-07-31T05:00:18.440Z,21.70
2022-07-31T05:02:45.487Z,22.92
2022-07-31T05:05:12.386Z,21.62
2022-07-31T05:07:41.966Z,22.49
2022-07-31T05:10:35.839Z,20.86
2022-07-31T05:13:02.710Z,22.43
2022-07-31T05:15:31.429Z,22.26
2022-07-31T05:17:58.242Z,23.80
2022-07-31T05:20:53.954Z,22.69
2022-07-31T05:23:32.282Z,22.08
2022-07-31T05:26:07.633Z,22.94
2022-07-31T05:28:35.066Z,22.77
2022-07-31T05:31:02.419Z,22.03
2022-07-31T05:33:29.967Z,22.40
2022-07-31T05:35:57.801Z,22.97
2022-07-31T05:38:25.367Z,22.80
2022-07-31T05:41:10.925Z,23.38
2022-07-31T05:43:56.219Z,23.07
2022-07-31T05:46:27.543Z,22.27
2022-07-31T05:48:54.336Z,21.19
2022-07-31T05:51:22.814Z,21.98
2022-07-31T05:53:49.802Z,22.54
2022-07-31T05:56:35.537Z,21.94
2022-07-31T05:59:02.558Z,21.55
2022-07-31T06:01:29.608Z,21.10
2022-07-31T06:03:57.708Z,21.82
2022-07-31T06:06:30.827Z,21.57
2022-07-31T06:09:03.565Z,21.40
2022-07-31T06:11:35.310Z,22.69
2022-07-31T06:14:02.097Z,20.81
2022-07-31T06:16:38.113Z,21.23
2022-07-31T06:19:05.183Z,24.15
2022-07-31T06:21:31.988Z,23.21
2022-07-31T06:23:59.129Z,21.65
2022-07-31T06:26:31.997Z,22.77
2022-07-31T06:28:59.223Z,21.96
2022-07-31T06:31:26.178Z,24.43
2022-07-31T06:33:56.293Z,22.32
2022-07-31T06:36:27.758Z,22.43
2022-07-31T06:38:58.779Z,22.63
2022-07-31T06:41:50.119Z,21.47
2022-07-31T06:44:45.763Z,22.65
2022-07-31T06:47:31.770Z,23.66
2022-07-31T06:50:06.123Z,24.36
2022-07-31T06:52:37.863Z,21.95
2022-07-31T06:55:07.227Z,24.17
2022-07-31T06:57:34.565Z,21.53
2022-07-31T07:00:06.856Z,21.41
2022-07-31T07:02:41.895Z,21.82
2022-07-31T07:05:08.911Z,21.49
2022-07-31T07:07:37.003Z,23.09
2022-07-31T07:10:06.223Z,24.05
2022-07-31T07:12:59.255Z,22.97
2022-07-31T07:15:27.710Z,22.50
2022-07-31T07:17:54.484Z,22.76
2022-07-31T07:20:31.813Z,21.88
2022-07-31T07:22:58.632Z,21.56
2022-07-31T07:25:36.652Z,23.06
2022-07-31T07:28:03.781Z,22.20
2022-07-31T07:30:30.734Z,22.08
2022-07-31T07:33:00.355Z,21.77
2022-07-31T07:35:33.796Z,21.99
2022-07-31T07:38:07.126Z,21.58
2022-07-31T07:40:37.009Z,22.20
2022-07-31T07:43:04.387Z,21.96
2022-07-31T07:45:32.507Z,21.95
2022-07-31T07:48:06.025Z,21.55
2022-07-31T07:50:57.125Z,22.45
2022-07-31T07:53:29.958Z,20.97
2022-07-31T07:56:15.569Z,20.36
2022-07-31T07:58:45.282Z,21.70
2022-07-31T08:01:35.096Z,22.67
2022-07-31T08:04:14.826Z,20.74
2022-07-31T08:06:41.627Z,20.13
2022-07-31T08:09:09.425Z,21.04
2022-07-31T08:12:03.655Z,20.71
2022-07-31T08:14:53.676Z,21.96
2022-07-31T08:17:59.236Z,21.73
2022-07-31T08:20:27.436Z,20.72
2022-07-31T08:22:54.494Z,19.81
2022-07-31T08:25:21.429Z,20.29
2022-07-31T08:27:50.030Z,21.51
2022-07-31T08:30:17.067Z,19.43
2022-07-31T08:32:43.986Z,21.59
2022-07-31T08:35:20.925Z,23.83
2022-07-31T08:38:02.793Z,20.02
2022-07-31T08:40:42.959Z,21.55
2022-07-31T08:44:00.761Z,20.98
2022-07-31T08:46:02.938Z,18.99
2022-07-31T08:48:36.502Z,20.59
2022-07-31T08:51:05.474Z,19.53
2022-07-31T08:53:51.678Z,18.18
2022-07-31T08:56:20.984Z,17.50
2022-07-31T08:58:47.836Z,19.67
2022-07-31T09:01:15.610Z,19.17
2022-07-31T09:03:42.954Z,18.57
2022-07-31T09:06:12.716Z,19.12
2022-07-31T09:08:39.605Z,18.78
2022-07-31T09:11:10.524Z,20.22
2022-07-31T09:14:01.461Z,18.85
2022-07-31T09:16:47.606Z,18.05
2022-07-31T09:19:53.049Z,20.75
2022-07-31T09:22:29.586Z,19.92
2022-07-31T09:25:12.326Z,17.90
2022-07-31T09:27:40.862Z,18.97
2022-07-31T09:30:08.869Z,16.18
2022-07-31T09:32:54.710Z,15.95
2022-07-31T09:35:39.962Z,16.40
2022-07-31T09:38:08.967Z,17.00
2022-07-31T09:40:57.432Z,19.00
2022-07-31T09:43:51.476Z,17.13
2022-07-31T09:46:19.118Z,17.21
2022-07-31T09:48:59.891Z,17.13
2022-07-31T09:51:41.978Z,17.57
2022-07-31T09:54:27.904Z,16.67
2022-07-31T09:57:14.551Z,16.06
2022-07-31T09:59:44.679Z,17.27
2022-07-31T10:02:15.156Z,18.84
2022-07-31T10:04:47.769Z,17.50
2022-07-31T10:07:31.519Z,17.09
2022-07-31T10:10:07.893Z,13.83
2022-07-31T10:12:55.546Z,14.80
2022-07-31T10:15:26.017Z,16.27
2022-07-31T10:18:35.698Z,17.38
2022-07-31T10:21:34.083Z,16.99
2022-07-31T10:24:11.352Z,16.87
2022-07-31T10:27:10.841Z,17.25
2022-07-31T10:29:27.558Z,17.30
2022-07-31T10:32:00.927Z,16.00
2022-07-31T10:34:28.886Z,17.35
2022-07-31T10:37:24.781Z,15.34
2022-07-31T10:40:37.022Z,16.96
2022-07-31T10:43:36.826Z,16.10
2022-07-31T10:46:12.110Z,15.02
2022-07-31T10:48:53.810Z,16.86
2022-07-31T10:51:48.610Z,16.01
2022-07-31T10:54:44.049Z,15.85
2022-07-31T10:57:35.019Z,14.60
2022-07-31T11:00:29.461Z,15.25
2022-07-31T11:03:19.987Z,17.31
2022-07-31T11:06:05.441Z,15.35
2022-07-31T11:09:04.790Z,15.85
2022-07-31T11:12:00.736Z,15.77
2022-07-31T11:14:39.731Z,15.55
2022-07-31T11:18:16.598Z,17.58
2022-07-31T11:20:32.074Z,16.81
2022-07-31T11:23:05.910Z,14.48
2022-07-31T11:25:35.407Z,16.23
2022-07-31T11:28:24.905Z,16.43
2022-07-31T11:30:53.434Z,15.98
2022-07-31T11:33:41.863Z,13.77
2022-07-31T11:36:24.199Z,14.94
2022-07-31T11:38:54.089Z,14.86
2022-07-31T11:41:23.917Z,17.20
2022-07-31T11:43:52.308Z,14.95
2022-07-31T11:46:30.193Z,15.96
2022-07-31T11:48:57.692Z,16.09
2022-07-31T11:51:25.936Z,16.49
2022-07-31T11:53:57.302Z,15.72
2022-07-31T11:56:26.903Z,15.81
2022-07-31T11:58:58.214Z,15.34
2022-07-31T12:01:29.502Z,15.55
2022-07-31T12:04:08.995Z,16.39
2022-07-31T12:06:37.278Z,14.98
2022-07-31T12:09:04.649Z,15.81
2022-07-31T12:11:31.740Z,16.16
2022-07-31T12:13:59.536Z,16.72
2022-07-31T12:16:26.562Z,16.91
2022-07-31T12:18:59.632Z,15.46
2022-07-31T12:21:35.868Z,15.03
2022-07-31T12:24:10.288Z,17.08
2022-07-31T12:26:37.184Z,15.59
2022-07-31T12:29:06.638Z,16.95
2022-07-31T12:31:54.234Z,16.51
2022-07-31T12:34:43.477Z,16.62
2022-07-31T12:37:16.873Z,15.56
2022-07-31T12:39:54.350Z,15.83
2022-07-31T12:42:30.817Z,15.30
2022-07-31T12:45:19.591Z,18.36
2022-07-31T12:47:52.494Z,15.64
2022-07-31T12:50:23.825Z,14.99
2022-07-31T12:52:50.998Z,14.79
2022-07-31T12:55:18.191Z,16.91
2022-07-31T12:57:51.660Z,14.98
2022-07-31T13:00:24.138Z,15.04
2022-07-31T13:02:52.028Z,15.33
2022-07-31T13:05:19.919Z,16.18
2022-07-31T13:07:47.214Z,15.67
2022-07-31T13:10:20.177Z,16.33
2022-07-31T13:12:50.521Z,15.78
2022-07-31T13:15:20.715Z,15.29
2022-07-31T13:17:50.831Z,15.10
2022-07-31T13:20:19.306Z,13.90
2022-07-31T13:22:46.431Z,15.97
2022-07-31T13:25:13.352Z,15.43
2022-07-31T13:27:41.403Z,14.60
2022-07-31T13:30:09.427Z,14.09
2022-07-31T13:32:36.323Z,16.95
2022-07-31T13:35:19.547Z,15.98
2022-07-31T13:37:51.115Z,15.47
2022-07-31T13:40:19.672Z,14.95
2022-07-31T13:42:46.864Z,17.09
2022-07-31T13:45:13.662Z,15.24
2022-07-31T13:47:50.252Z,15.11
2022-07-31T13:50:18.078Z,16.18
2022-07-31T13:52:44.961Z,14.59
2022-07-31T13:55:11.978Z,16.45
2022-07-31T13:57:38.957Z,15.21
2022-07-31T14:00:06.520Z,14.88
2022-07-31T14:02:33.401Z,13.93
2022-07-31T14:05:00.359Z,15.08
2022-07-31T14:07:45.435Z,14.76
2022-07-31T14:10:19.933Z,15.69
2022-07-31T14:12:47.840Z,14.97
2022-07-31T14:15:15.070Z,15.75
2022-07-31T14:17:42.186Z,15.55
2022-07-31T14:20:09.617Z,14.57
2022-07-31T14:22:36.452Z,13.57
2022-07-31T14:25:04.246Z,15.51
2022-07-31T14:27:31.135Z,15.46
2022-07-31T14:29:57.917Z,15.52
2022-07-31T14:32:25.262Z,16.75
2022-07-31T14:34:52.224Z,14.84
2022-07-31T14:37:20.709Z,14.41
2022-07-31T14:39:47.846Z,16.00
2022-07-31T14:42:14.851Z,14.69
2022-07-31T14:44:49.026Z,15.40
2022-07-31T14:47:17.069Z,15.07
2022-07-31T14:50:07.613Z,13.97
2022-07-31T14:52:31.860Z,13.35
2022-07-31T14:55:00.142Z,13.10
2022-07-31T14:57:28.267Z,14.04
2022-07-31T14:59:55.025Z,14.71
2022-07-31T15:02:22.929Z,13.22
2022-07-31T15:04:51.688Z,14.37
2022-07-31T15:07:34.622Z,14.67
2022-07-31T15:10:04.897Z,14.93
2022-07-31T15:12:32.233Z,13.70
2022-07-31T15:14:59.223Z,13.36
2022-07-31T15:17:26.157Z,15.09
2022-07-31T15:19:53.155Z,14.31
2022-07-31T15:22:20.540Z,14.59
2022-07-31T15:24:50.022Z,15.16
2022-07-31T15:27:18.927Z,15.17
2022-07-31T15:30:03.417Z,14.30
2022-07-31T15:32:33.894Z,14.34
2022-07-31T15:35:00.909Z,15.72
2022-07-31T15:37:28.238Z,14.40
2022-07-31T15:40:01.933Z,14.87
2022-07-31T15:42:33.351Z,14.48
2022-07-31T15:45:00.269Z,15.61
2022-07-31T15:47:27.079Z,15.26
2022-07-31T15:49:53.894Z,14.00
2022-07-31T15:52:20.659Z,14.57
2022-07-31T15:54:51.772Z,13.79
2022-07-31T15:57:23.062Z,14.92
2022-07-31T15:59:50.832Z,13.62
2022-07-31T16:02:18.142Z,15.03
2022-07-31T16:04:48.621Z,14.82
2022-07-31T16:08:29.796Z,15.62
2022-07-31T16:10:15.194Z,15.00
2022-07-31T16:12:47.928Z,14.51
2022-07-31T16:15:16.730Z,15.22
2022-07-31T16:17:44.263Z,15.09
2022-07-31T16:20:20.687Z,15.22
2022-07-31T16:22:58.704Z,15.75
2022-07-31T16:25:27.491Z,14.54
2022-07-31T16:27:54.906Z,17.56
2022-07-31T16:30:22.407Z,15.66
2022-07-31T16:32:49.851Z,14.82
2022-07-31T16:35:16.842Z,15.65
2022-07-31T16:37:50.904Z,17.78
2022-07-31T16:40:30.861Z,16.35
2022-07-31T16:43:49.756Z,16.11
2022-07-31T16:45:50.924Z,16.55
2022-07-31T16:48:18.168Z,17.38
2022-07-31T16:50:47.418Z,16.08
2022-07-31T16:54:10.647Z,17.68
2022-07-31T16:56:12.095Z,16.80
2022-07-31T16:58:39.431Z,17.00
2022-07-31T17:01:53.262Z,16.98
2022-07-31T17:04:00.741Z,15.56
2022-07-31T17:06:36.388Z,15.84
2022-07-31T17:09:17.076Z,17.37
2022-07-31T17:11:53.038Z,16.40
2022-07-31T17:14:22.601Z,19.08
2022-07-31T17:16:50.783Z,16.64
2022-07-31T17:19:40.990Z,17.28
2022-07-31T17:22:07.453Z,16.64
2022-07-31T17:24:37.254Z,16.89
2022-07-31T17:27:07.035Z,17.76
2022-07-31T17:29:34.799Z,18.81
2022-07-31T17:32:01.862Z,17.87
2022-07-31T17:34:28.834Z,16.72
2022-07-31T17:36:56.373Z,18.72
2022-07-31T17:39:25.198Z,19.80
2022-07-31T17:41:55.403Z,19.36
2022-07-31T17:44:22.184Z,19.32
2022-07-31T17:46:51.286Z,18.98
2022-07-31T17:49:20.373Z,18.87
2022-07-31T17:51:58.759Z,18.63
2022-07-31T17:54:28.460Z,18.90
2022-07-31T17:56:55.214Z,19.41
2022-07-31T17:59:23.208Z,18.40
2022-07-31T18:01:52.260Z,17.61
2022-07-31T18:04:21.357Z,17.88
2022-07-31T18:06:54.463Z,17.75
2022-07-31T18:09:23.363Z,18.15
2022-07-31T18:11:51.543Z,17.87
2022-07-31T18:14:19.344Z,18.69
2022-07-31T18:16:47.879Z,17.71
2022-07-31T18:19:15.134Z,19.28
2022-07-31T18:21:42.217Z,18.30
2022-07-31T18:24:09.104Z,19.15
2022-07-31T18:26:37.290Z,18.51
2022-07-31T18:29:04.959Z,18.64
2022-07-31T18:31:35.404Z,18.85
2022-07-31T18:34:04.590Z,18.11
2022-07-31T18:36:32.981Z,18.21
2022-07-31T18:39:00.101Z,19.67
2022-07-31T18:41:27.535Z,18.43
2022-07-31T18:43:54.468Z,18.09
2022-07-31T18:46:21.455Z,18.40
2022-07-31T18:48:53.092Z,19.15
2022-07-31T18:51:23.181Z,19.46
2022-07-31T18:53:50.334Z,18.96
2022-07-31T18:56:17.263Z,18.68
2022-07-31T18:58:44.057Z,18.16
2022-07-31T19:01:10.945Z,18.47
2022-07-31T19:03:37.722Z,19.72
2022-07-31T19:06:05.380Z,18.07
2022-07-31T19:08:32.267Z,19.28
2022-07-31T19:10:59.600Z,19.86
2022-07-31T19:13:26.608Z,19.01
2022-07-31T19:15:53.485Z,18.83
2022-07-31T19:18:26.425Z,18.52
2022-07-31T19:21:23.600Z,18.73
2022-07-31T19:23:44.157Z,18.55
2022-07-31T19:26:11.297Z,18.75
2022-07-31T19:28:39.878Z,19.28
2022-07-31T19:31:07.558Z,18.65
2022-07-31T19:33:34.809Z,18.80
2022-07-31T19:36:03.102Z,18.60
2022-07-31T19:38:31.771Z,19.04
2022-07-31T19:40:59.013Z,18.53
2022-07-31T19:43:25.964Z,19.10
2022-07-31T19:46:02.739Z,18.83
2022-07-31T19:48:40.665Z,18.55
2022-07-31T19:51:07.924Z,19.06
2022-07-31T19:53:35.827Z,18.66
2022-07-31T19:56:05.963Z,19.00
2022-07-31T19:58:35.104Z,18.91
2022-07-31T20:01:05.046Z,18.60
2022-07-31T20:03:32.361Z,18.79
2022-07-31T20:05:59.763Z,19.67
2022-07-31T20:08:28.138Z,19.25
2022-07-31T20:11:03.514Z,19.13
2022-07-31T20:13:32.593Z,20.24
2022-07-31T20:16:00.340Z,20.27
2022-07-31T20:18:28.792Z,20.76
2022-07-31T20:21:07.045Z,19.46
2022-07-31T20:23:38.117Z,21.98
2022-07-31T20:26:11.528Z,20.55
2022-07-31T20:28:40.416Z,20.19
2022-07-31T20:31:16.158Z,20.14
2022-07-31T20:33:56.515Z,20.17
2022-07-31T20:36:24.005Z,20.33
2022-07-31T20:38:51.114Z,20.61
2022-07-31T20:41:18.320Z,20.22
2022-07-31T20:43:45.810Z,21.59
2022-07-31T20:46:12.855Z,21.44
2022-07-31T20:48:40.265Z,20.56
2022-07-31T20:51:09.222Z,20.30
2022-07-31T20:53:37.115Z,21.11
2022-07-31T20:56:04.212Z,20.33
2022-07-31T20:58:31.504Z,19.44
2022-07-31T21:00:58.461Z,20.60
2022-07-31T21:03:25.249Z,20.31
2022-07-31T21:05:52.253Z,19.76
2022-07-31T21:08:19.167Z,20.61
2022-07-31T21:10:46.165Z,20.90
2022-07-31T21:13:13.403Z,20.78
2022-07-31T21:15:44.527Z,20.46
2022-07-31T21:18:13.588Z,21.98
2022-07-31T21:20:51.946Z,20.88
2022-07-31T21:23:24.036Z,20.77
2022-07-31T21:25:55.959Z,21.27
2022-07-31T21:28:24.393Z,21.39
2022-07-31T21:30:53.720Z,22.57
2022-07-31T21:33:20.905Z,21.50
2022-07-31T21:35:48.031Z,21.41
2022-07-31T21:38:16.065Z,20.53
2022-07-31T21:40:43.945Z,20.98
2022-07-31T21:43:11.812Z,21.25
2022-07-31T21:45:55.202Z,21.37
2022-07-31T21:48:25.242Z,21.16
2022-07-31T21:50:53.241Z,22.89
2022-07-31T21:53:20.586Z,21.17
2022-07-31T21:55:47.397Z,21.17
2022-07-31T21:58:14.297Z,21.22
2022-07-31T22:00:41.563Z,20.76
2022-07-31T22:03:08.766Z,21.99
2022-07-31T22:05:54.565Z,20.87
2022-07-31T22:08:21.411Z,20.37
2022-07-31T22:10:50.854Z,20.57
2022-07-31T22:13:18.247Z,20.89
2022-07-31T22:15:51.434Z,20.95
2022-07-31T22:18:30.034Z,20.40
2022-07-31T22:20:57.652Z,22.13
2022-07-31T22:23:25.935Z,21.54
2022-07-31T22:25:53.341Z,21.33
2022-07-31T22:28:22.487Z,20.26
2022-07-31T22:30:50.010Z,21.00
2022-07-31T22:33:16.982Z,21.61
2022-07-31T22:35:44.080Z,21.93
2022-07-31T22:38:13.630Z,22.25
2022-07-31T22:40:43.970Z,21.30
2022-07-31T22:44:11.049Z,20.96
2022-07-31T22:46:00.551Z,21.32
2022-07-31T22:48:28.088Z,23.09
2022-07-31T22:50:56.174Z,21.25
2022-07-31T22:53:24.146Z,21.93
2022-07-31T22:55:53.122Z,22.54
2022-07-31T22:58:23.534Z,20.76
2022-07-31T23:00:50.458Z,20.44
2022-07-31T23:03:17.354Z,21.18
2022-07-31T23:06:05.286Z,21.01
2022-07-31T23:08:30.838Z,20.55
2022-07-31T23:10:57.743Z,20.86
2022-07-31T23:13:24.656Z,21.66
2022-07-31T23:15:51.640Z,22.41
2022-07-31T23:18:18.529Z,23.51
2022-07-31T23:20:45.325Z,21.01
2022-07-31T23:23:12.113Z,22.26
2022-07-31T23:25:38.894Z,21.26
2022-07-31T23:28:05.697Z,21.37
2022-07-31T23:30:32.467Z,20.52
2022-07-31T23:32:59.350Z,20.52
2022-07-31T23:35:26.111Z,21.77
2022-07-31T23:37:52.876Z,20.90
2022-07-31T23:40:19.655Z,22.22
2022-07-31T23:42:46.471Z,20.55
2022-07-31T23:45:15.793Z,21.21
2022-07-31T23:47:45.558Z,21.93
2022-07-31T23:50:14.253Z,21.03
2022-07-31T23:52:41.805Z,20.81
2022-07-31T23:55:09.187Z,21.66
2022-07-31T23:57:36.506Z,22.97
